Time;durP1;ratioP1;P1;durP2;ratioP2;P2;SDS_P1;SDS_P2;PMS_P1;PMS_P2;Temp;Humidity;BMP_temperature;BMP_pressure;BME280_temperature;BME280_humidity;BME280_pressure;Samples;Min_cycle;Max_cycle;Signal;HPM_P1;HPM_P2
2021/12/17 00:00:07;;;;;;;22.02;14.00;;;6.60;82.60;;;;;;10827640;32;20053;-70
2021/12/17 00:06:47;;;;;;;16.70;12.50;;;6.50;82.70;;;;;;10827327;33;20024;-70
2021/12/17 00:12:41;;;;;;;17.80;11.90;;;6.40;82.60;;;;;;10826954;33;20340;-70
2021/12/17 00:19:03;;;;;;;23.45;15.25;;;6.30;82.90;;;;;;10826946;33;20024;-69
2021/12/17 00:46:35;;;;;;;19.23;11.63;;;5.80;83.50;;;;;;10826093;33;20024;-70
2021/12/17 00:56:39;;;;;;;14.52;10.55;;;5.60;83.70;;;;;;10823899;33;20306;-70
2021/12/17 01:02:42;;;;;;;14.93;12.95;;;5.70;83.90;;;;;;10825581;33;20032;-70
2021/12/17 01:08:44;;;;;;;16.30;10.95;;;6.00;83.60;;;;;;10823642;33;20047;-70
2021/12/17 01:14:48;;;;;;;15.07;10.63;;;6.00;83.30;;;;;;10825068;32;20023;-70
2021/12/17 01:46:32;;;;;;;;;;;5.80;83.40;;;;;;10937668;32;20399;-70
2021/12/17 02:05:17;;;;;;;24.83;19.65;;;6.20;83.30;;;;;;10938030;32;20015;-70
2021/12/17 02:30:59;;;;;;;22.30;15.73;;;7.10;81.50;;;;;;10789494;33;20033;-70
2021/12/17 02:37:06;;;;;;;30.27;19.25;;;7.10;81.00;;;;;;10773351;33;20055;-70
2021/12/17 02:49:34;;;;;;;28.17;21.45;;;6.90;80.70;;;;;;10789659;32;20463;-70
2021/12/17 02:55:46;;;;;;;33.08;20.77;;;7.00;80.80;;;;;;10865668;32;20031;-70
2021/12/17 03:01:49;;;;;;;23.00;17.33;;;7.10;80.60;;;;;;10866325;32;20304;-70
2021/12/17 03:07:54;;;;;;;22.67;15.63;;;7.10;80.40;;;;;;10865995;32;20031;-70
2021/12/17 03:13:56;;;;;;;22.77;15.52;;;7.10;80.10;;;;;;10862344;32;20016;-70
2021/12/17 03:26:04;;;;;;;18.52;14.23;;;6.70;81.00;;;;;;10865538;32;20027;-70
2021/12/17 03:32:07;;;;;;;26.05;17.80;;;6.80;81.00;;;;;;10864524;32;20058;-70
2021/12/17 03:38:10;;;;;;;18.23;12.90;;;6.70;81.00;;;;;;10864938;32;20019;-70
2021/12/17 03:44:12;;;;;;;23.77;13.23;;;6.70;80.50;;;;;;10865017;32;20031;-70
2021/12/17 03:50:16;;;;;;;17.05;13.75;;;6.60;80.90;;;;;;10864825;32;20050;-70
2021/12/17 03:56:19;;;;;;;20.90;15.07;;;6.80;80.50;;;;;;10864604;32;20036;-70
2021/12/17 04:02:22;;;;;;;20.37;15.30;;;7.00;80.20;;;;;;10851802;32;20028;-70
2021/12/17 04:08:24;;;;;;;21.17;16.62;;;7.30;80.30;;;;;;10860627;32;20031;-70
2021/12/17 04:14:41;;;;;;;21.77;16.35;;;6.90;80.10;;;;;;10850751;32;20027;-70
2021/12/17 04:20:43;;;;;;;16.35;11.77;;;6.90;80.10;;;;;;10864092;32;20086;-70
2021/12/17 04:26:45;;;;;;;23.02;13.95;;;6.80;79.60;;;;;;10863786;32;20446;-74
2021/12/17 04:32:48;;;;;;;16.92;12.40;;;6.70;79.60;;;;;;10863671;32;20024;-74
2021/12/17 04:38:52;;;;;;;22.42;14.52;;;6.60;79.70;;;;;;10863406;32;20399;-74
2021/12/17 04:44:57;;;;;;;16.27;10.93;;;6.70;79.60;;;;;;10863219;32;20035;-74
2021/12/17 04:57:32;;;;;;;17.42;12.27;;;6.20;80.10;;;;;;10863089;32;20430;-74
2021/12/17 05:03:35;;;;;;;16.55;12.00;;;6.20;79.90;;;;;;10862944;32;20359;-74
2021/12/17 05:09:56;;;;;;;15.35;11.38;;;6.10;79.50;;;;;;10862777;32;20024;-74
2021/12/17 05:22:20;;;;;;;16.08;11.43;;;5.50;80.30;;;;;;10862350;32;20054;-74
2021/12/17 05:28:24;;;;;;;16.77;12.10;;;5.40;81.20;;;;;;10849146;32;20379;-74
2021/12/17 05:34:27;;;;;;;18.30;14.82;;;5.80;80.80;;;;;;10862100;32;20293;-74
2021/12/17 05:40:30;;;;;;;23.10;16.80;;;5.90;80.40;;;;;;10861830;32;20320;-74
2021/12/17 05:46:51;;;;;;;19.90;14.00;;;6.10;79.90;;;;;;10861368;32;20446;-74
2021/12/17 05:52:53;;;;;;;20.27;14.68;;;6.30;79.80;;;;;;10861117;32;20051;-74
2021/12/17 05:58:56;;;;;;;19.25;11.90;;;6.40;80.00;;;;;;10859385;32;20027;-74
2021/12/17 06:04:59;;;;;;;19.60;13.45;;;6.60;80.50;;;;;;10867929;32;20320;-75
2021/12/17 06:11:22;;;;;;;18.60;13.55;;;6.70;80.40;;;;;;10865984;32;20392;-75
2021/12/17 06:17:24;;;;;;;20.83;17.60;;;6.50;80.10;;;;;;10864639;32;20024;-75
2021/12/17 06:23:26;;;;;;;21.70;13.73;;;6.40;80.10;;;;;;10867260;32;20039;-75
2021/12/17 06:29:29;;;;;;;18.87;14.57;;;6.50;79.70;;;;;;10863326;32;20301;-75
2021/12/17 06:35:32;;;;;;;25.35;16.83;;;6.20;79.70;;;;;;10866171;32;20023;-75
2021/12/17 06:41:38;;;;;;;23.65;17.65;;;6.20;79.60;;;;;;10833977;32;20032;-73
2021/12/17 06:48:14;;;;;;;21.80;14.77;;;6.20;78.90;;;;;;10748726;32;20082;-74
2021/12/17 07:01:07;;;;;;;16.45;12.23;;;6.00;79.20;;;;;;10788409;33;20055;-74
2021/12/17 07:32:35;;;;;;;20.15;13.93;;;5.70;80.70;;;;;;10828304;33;20027;-73
2021/12/17 07:38:40;;;;;;;30.08;19.37;;;5.90;80.60;;;;;;10823861;33;20050;-73
2021/12/17 07:44:45;;;;;;;24.10;15.35;;;5.70;80.60;;;;;;10827331;32;20024;-73
2021/12/17 07:50:51;;;;;;;21.27;16.58;;;5.70;80.20;;;;;;10826319;32;20278;-73
2021/12/17 07:56:54;;;;;;;23.95;16.87;;;5.50;80.90;;;;;;10838296;32;20066;-73
2021/12/17 08:02:56;;;;;;;30.48;20.05;;;5.80;81.50;;;;;;10863288;32;20032;-74
2021/12/17 08:09:00;;;;;;;33.10;28.08;;;5.80;80.60;;;;;;10825634;32;20307;-73
2021/12/17 08:15:05;;;;;;;26.55;20.85;;;6.10;81.20;;;;;;10824813;33;20333;-73
2021/12/17 08:33:44;;;;;;;28.02;20.08;;;7.00;81.30;;;;;;10826637;33;20047;-74
2021/12/17 08:39:47;;;;;;;25.77;18.73;;;7.20;81.60;;;;;;10826421;33;20036;-69
2021/12/17 08:45:54;;;;;;;24.90;16.83;;;7.20;81.40;;;;;;10824368;33;20403;-69
2021/12/17 08:51:59;;;;;;;25.00;19.67;;;7.30;81.40;;;;;;10826041;33;20329;-69
2021/12/17 08:58:02;;;;;;;30.40;22.17;;;7.30;81.40;;;;;;10825809;33;20016;-68
2021/12/17 09:04:05;;;;;;;20.95;14.48;;;7.50;81.20;;;;;;10821564;33;20324;-68
2021/12/17 09:10:09;;;;;;;21.10;17.05;;;7.60;80.90;;;;;;10825528;33;20023;-68
2021/12/17 09:16:12;;;;;;;27.80;18.92;;;7.50;81.20;;;;;;10825155;33;20388;-68
2021/12/17 09:22:14;;;;;;;25.23;17.80;;;7.60;80.90;;;;;;10811694;33;20043;-68
2021/12/17 09:28:16;;;;;;;21.00;16.75;;;7.20;80.20;;;;;;10823422;33;20418;-68
2021/12/17 09:34:31;;;;;;;25.70;19.45;;;6.70;80.90;;;;;;10824524;32;20023;-68
2021/12/17 09:40:45;;;;;;;36.14;27.92;;;6.40;80.90;;;;;;10813805;27;12142882;-69
2021/12/17 09:46:48;;;;;;;36.58;29.50;;;6.30;81.20;;;;;;10695288;33;20104;-68
2021/12/17 09:52:53;;;;;;;31.58;24.50;;;6.10;80.60;;;;;;10711262;33;20055;-68
2021/12/17 09:58:56;;;;;;;43.65;35.70;;;6.00;80.90;;;;;;10711636;33;20055;-69
2021/12/17 10:05:00;;;;;;;32.22;24.33;;;5.90;80.90;;;;;;10699197;33;20044;-75
2021/12/17 10:11:06;;;;;;;38.15;26.48;;;6.00;81.30;;;;;;10768341;33;20062;-75
2021/12/17 10:17:13;;;;;;;45.78;32.95;;;6.10;81.60;;;;;;10786745;33;20013;-69
2021/12/17 10:23:15;;;;;;;42.55;37.10;;;6.40;82.10;;;;;;10786955;32;20054;-69
2021/12/17 10:29:21;;;;;;;38.97;30.25;;;6.60;81.00;;;;;;10787407;33;20028;-70
2021/12/17 10:36:24;;;;;;;34.85;26.25;;;6.40;80.10;;;;;;10786328;33;20455;-70
2021/12/17 10:42:38;;;;;;;33.42;24.20;;;6.40;80.30;;;;;;10772447;33;20028;-69
2021/12/17 10:54:46;;;;;;;30.33;22.45;;;6.50;80.10;;;;;;10794509;33;20409;-74
2021/12/17 11:00:56;;;;;;;37.35;29.63;;;6.50;80.10;;;;;;10794044;33;20051;-74
2021/12/17 11:07:00;;;;;;;32.83;25.00;;;6.30;79.50;;;;;;10794336;33;20043;-73
2021/12/17 11:13:02;;;;;;;35.60;27.40;;;6.30;79.90;;;;;;10792495;33;20028;-73
2021/12/17 11:19:05;;;;;;;33.40;23.87;;;6.40;79.90;;;;;;10793491;33;20087;-74
2021/12/17 11:25:09;;;;;;;32.25;24.27;;;6.50;79.70;;;;;;10764728;33;20032;-74
2021/12/17 11:31:11;;;;;;;39.42;32.05;;;6.50;78.50;;;;;;10773089;33;20028;-74
2021/12/17 11:37:14;;;;;;;38.78;30.25;;;6.50;79.20;;;;;;10770836;33;20036;-74
2021/12/17 11:43:20;;;;;;;32.47;25.55;;;6.60;78.90;;;;;;10782778;33;20020;-75
2021/12/17 11:49:26;;;;;;;27.30;20.33;;;6.50;78.60;;;;;;10762350;33;20055;-74
2021/12/17 11:55:34;;;;;;;32.75;24.85;;;6.60;78.50;;;;;;10786481;33;20032;-74
2021/12/17 12:08:37;;;;;;;35.28;28.60;;;6.50;78.40;;;;;;10785695;33;20058;-69
2021/12/17 12:14:38;;;;;;;32.22;23.40;;;6.60;79.40;;;;;;10800347;32;20055;-68
2021/12/17 12:20:47;;;;;;;33.03;27.00;;;6.50;79.20;;;;;;10787910;33;20051;-70
2021/12/17 12:26:52;;;;;;;40.40;34.58;;;6.40;79.70;;;;;;10790032;33;20054;-70
2021/12/17 12:33:08;;;;;;;32.58;23.62;;;6.50;79.40;;;;;;10785749;33;20019;-68
2021/12/17 12:39:21;;;;;;;32.00;22.75;;;6.60;79.60;;;;;;10785597;33;20024;-70
2021/12/17 12:45:24;;;;;;;23.15;18.80;;;6.70;79.70;;;;;;10789391;33;20317;-70
2021/12/17 12:51:34;;;;;;;31.45;23.12;;;6.80;80.20;;;;;;10775956;33;20029;-68
2021/12/17 12:58:40;;;;;;;24.00;17.45;;;7.00;80.60;;;;;;10789209;33;20423;-71
2021/12/17 13:04:43;;;;;;;29.73;25.00;;;7.00;80.20;;;;;;10634262;33;20079;-71
2021/12/17 13:10:54;;;;;;;28.90;20.15;;;7.10;80.80;;;;;;10639953;33;20080;-70
2021/12/17 13:17:41;;;;;;;34.00;23.75;;;7.20;80.90;;;;;;10639928;33;20026;-68
2021/12/17 13:23:48;;;;;;;23.95;19.83;;;7.80;81.50;;;;;;10639749;33;20017;-68
2021/12/17 13:29:50;;;;;;;27.27;19.95;;;8.20;81.50;;;;;;10635525;33;20025;-70
2021/12/17 13:35:52;;;;;;;31.95;23.12;;;8.30;81.00;;;;;;10640497;33;20052;-70
2021/12/17 13:41:54;;;;;;;30.45;22.75;;;8.20;81.10;;;;;;10770113;33;20047;-70
2021/12/17 13:47:57;;;;;;;22.90;17.58;;;8.30;81.40;;;;;;10787983;33;20081;-70
2021/12/17 13:54:02;;;;;;;23.75;20.17;;;8.40;80.80;;;;;;10787810;33;20030;-70
2021/12/17 14:00:14;;;;;;;30.85;20.58;;;8.50;80.90;;;;;;10774570;33;20020;-70
2021/12/17 14:06:52;;;;;;;28.15;19.83;;;8.50;80.70;;;;;;10783309;33;20028;-70
2021/12/17 14:13:49;;;;;;;26.60;18.20;;;8.30;80.40;;;;;;10862267;32;20023;-70
2021/12/17 14:20:19;;;;;;;20.10;14.38;;;8.70;80.80;;;;;;10863716;32;20023;-69
2021/12/17 14:26:31;;;;;;;19.30;15.00;;;9.20;80.70;;;;;;10867811;32;20344;-70
2021/12/17 14:32:43;;;;;;;21.25;16.00;;;10.00;80.50;;;;;;10863970;32;20400;-70
2021/12/17 14:38:54;;;;;;;22.90;15.45;;;10.10;80.50;;;;;;10865419;32;20071;-70
2021/12/17 14:45:04;;;;;;;21.52;14.00;;;10.20;81.50;;;;;;10858422;32;20332;-74
2021/12/17 15:04:01;;;;;;;20.20;14.02;;;9.40;82.70;;;;;;10755410;33;20059;-73
2021/12/17 15:10:07;;;;;;;22.58;16.48;;;8.80;83.20;;;;;;10755289;33;20036;-74
2021/12/17 15:16:09;;;;;;;28.17;20.70;;;8.50;84.00;;;;;;10752640;33;20024;-74
2021/12/17 15:22:12;;;;;;;22.00;17.83;;;8.50;84.20;;;;;;10754907;33;20059;-74
2021/12/17 15:28:22;;;;;;;23.92;17.48;;;8.30;84.10;;;;;;10754433;33;20025;-74
2021/12/17 15:34:25;;;;;;;26.83;20.83;;;8.30;84.10;;;;;;10754453;33;20059;-73
2021/12/17 15:40:28;;;;;;;25.33;18.60;;;8.20;84.00;;;;;;10754318;33;20024;-74
2021/12/17 15:46:50;;;;;;;23.02;18.92;;;8.10;83.90;;;;;;10753959;33;20299;-74
2021/12/17 15:52:52;;;;;;;30.92;20.52;;;8.00;84.40;;;;;;10754498;33;20447;-73
2021/12/17 15:58:54;;;;;;;31.95;24.05;;;7.80;84.30;;;;;;10754806;33;20723;-74
2021/12/17 16:04:56;;;;;;;24.45;19.75;;;7.70;84.10;;;;;;10750802;33;20059;-73
2021/12/17 16:23:51;;;;;;;26.95;19.83;;;7.10;84.40;;;;;;10759299;33;20036;-73
2021/12/17 16:29:54;;;;;;;25.85;18.15;;;7.10;84.40;;;;;;10753684;33;20025;-74
2021/12/17 16:35:59;;;;;;;34.90;26.98;;;6.90;84.30;;;;;;10753546;33;20050;-74
2021/12/17 16:42:02;;;;;;;33.17;24.77;;;6.70;84.60;;;;;;10752340;33;20021;-73
2021/12/17 16:48:06;;;;;;;39.25;29.12;;;6.60;84.50;;;;;;10751892;32;20337;-74
2021/12/17 16:54:09;;;;;;;27.90;22.35;;;6.50;84.50;;;;;;10752659;33;20333;-73
2021/12/17 17:00:11;;;;;;;42.83;34.00;;;6.50;84.60;;;;;;10780761;33;20028;-73
2021/12/17 17:06:13;;;;;;;40.45;30.48;;;6.30;84.60;;;;;;10788563;33;20047;-73
2021/12/17 17:12:17;;;;;;;46.78;33.70;;;6.20;84.30;;;;;;10788659;33;20431;-74
2021/12/17 17:18:19;;;;;;;45.17;30.40;;;6.30;84.50;;;;;;10788772;32;20050;-73
2021/12/17 17:24:22;;;;;;;40.83;29.10;;;6.20;84.50;;;;;;10788133;33;20520;-74
2021/12/17 17:30:54;;;;;;;41.22;29.60;;;6.10;83.90;;;;;;10778102;33;20054;-74
2021/12/17 17:36:56;;;;;;;41.92;30.52;;;5.70;83.80;;;;;;10788185;33;20272;-74
2021/12/17 17:42:58;;;;;;;29.83;24.87;;;5.60;83.20;;;;;;10807162;27;20040;-74
2021/12/17 17:49:00;;;;;;;40.10;29.12;;;5.40;84.20;;;;;;10824795;33;20032;-74
2021/12/17 17:55:03;;;;;;;39.33;30.65;;;5.20;84.40;;;;;;10824559;33;20008;-74
2021/12/17 18:01:07;;;;;;;30.75;22.70;;;5.00;84.10;;;;;;10824636;33;20048;-73
2021/12/17 18:07:39;;;;;;;30.15;23.95;;;4.80;84.50;;;;;;10675888;33;20079;-74
2021/12/17 18:13:51;;;;;;;36.08;32.08;;;4.70;84.60;;;;;;10674562;33;20036;-74
2021/12/17 18:20:06;;;;;;;31.70;25.15;;;4.60;84.70;;;;;;10675026;33;20037;-74
2021/12/17 18:26:08;;;;;;;82.75;45.80;;;4.30;83.90;;;;;;10675299;33;20415;-74
2021/12/17 18:32:10;;;;;;;33.67;26.12;;;4.20;84.00;;;;;;10675479;33;20021;-74
2021/12/17 18:38:12;;;;;;;33.42;25.27;;;4.00;84.20;;;;;;10796532;33;20055;-74
2021/12/17 18:44:16;;;;;;;29.75;23.10;;;3.90;84.40;;;;;;10823266;33;20051;-74
2021/12/17 18:50:19;;;;;;;30.62;23.58;;;4.10;84.30;;;;;;10823246;33;20062;-74
2021/12/17 18:56:25;;;;;;;29.83;23.60;;;4.10;84.50;;;;;;10822961;33;20020;-73
2021/12/17 19:02:27;;;;;;;30.00;22.45;;;4.10;84.20;;;;;;10822735;33;20340;-74
2021/12/17 19:08:31;;;;;;;25.65;19.30;;;4.00;84.50;;;;;;10825646;32;20054;-73
2021/12/17 19:14:37;;;;;;;27.00;19.65;;;3.90;84.40;;;;;;10828743;33;20336;-74
2021/12/17 19:20:43;;;;;;;32.63;24.50;;;3.90;84.60;;;;;;10828366;33;20085;-73
2021/12/17 19:26:45;;;;;;;28.35;23.38;;;3.90;84.50;;;;;;10826691;33;20086;-74
2021/12/17 19:32:47;;;;;;;32.92;25.45;;;4.00;85.00;;;;;;10828113;33;20023;-74
2021/12/17 19:39:00;;;;;;;29.70;23.48;;;4.20;84.30;;;;;;10828064;33;20055;-73
2021/12/17 19:45:03;;;;;;;30.70;25.42;;;4.10;83.90;;;;;;10827773;33;20028;-73
2021/12/17 19:51:08;;;;;;;24.77;20.80;;;4.00;84.20;;;;;;10827961;33;20008;-73
2021/12/17 19:57:10;;;;;;;33.75;25.77;;;3.90;84.10;;;;;;10827547;33;20062;-74
2021/12/17 20:03:12;;;;;;;42.95;29.25;;;3.90;84.70;;;;;;10827161;33;20036;-74
2021/12/17 20:09:18;;;;;;;35.03;29.67;;;3.90;84.70;;;;;;10827123;33;20051;-74
2021/12/17 20:16:00;;;;;;;54.03;46.67;;;4.30;84.20;;;;;;10826964;33;20038;-74
2021/12/17 20:22:07;;;;;;;49.05;36.08;;;4.30;84.00;;;;;;10813607;33;20046;-74
2021/12/17 20:28:10;;;;;;;38.60;33.25;;;4.70;84.00;;;;;;10826580;33;20024;-74
2021/12/17 20:34:12;;;;;;;37.17;30.73;;;4.70;83.20;;;;;;10825955;33;20016;-74
2021/12/17 20:40:19;;;;;;;49.08;40.85;;;4.60;83.60;;;;;;10825775;33;20024;-74
2021/12/17 20:46:21;;;;;;;41.05;30.55;;;4.40;83.80;;;;;;10813098;33;20024;-74
2021/12/17 20:52:40;;;;;;;40.20;32.58;;;4.50;83.60;;;;;;10814921;33;20420;-74
2021/12/17 20:58:51;;;;;;;36.10;30.25;;;4.60;83.70;;;;;;10822937;33;20043;-74
2021/12/17 21:04:54;;;;;;;38.50;29.87;;;4.50;83.50;;;;;;10824365;33;20338;-74
2021/12/17 21:11:18;;;;;;;39.08;29.90;;;4.60;83.80;;;;;;10825790;33;20047;-74
2021/12/17 21:23:57;;;;;;;36.15;29.10;;;4.50;83.70;;;;;;10825615;33;20020;-74
2021/12/17 21:30:00;;;;;;;46.83;41.47;;;4.60;83.20;;;;;;10825063;32;20024;-74
2021/12/17 21:36:07;;;;;;;44.13;33.67;;;4.60;83.20;;;;;;10812175;33;20043;-70
2021/12/17 21:42:15;;;;;;;45.05;36.80;;;4.70;83.00;;;;;;10825029;33;20352;-70
2021/12/17 21:48:17;;;;;;;42.05;34.13;;;4.50;83.10;;;;;;10807506;32;20320;-70
2021/12/17 21:54:19;;;;;;;41.25;32.75;;;4.50;82.90;;;;;;10824663;32;20408;-70
2021/12/17 22:00:25;;;;;;;41.95;33.90;;;4.60;82.30;;;;;;10824608;33;20434;-70
2021/12/17 22:06:27;;;;;;;45.60;35.17;;;4.40;82.80;;;;;;10824558;33;20348;-70
2021/12/17 22:12:29;;;;;;;42.60;32.55;;;4.40;82.80;;;;;;10811124;33;20012;-70
2021/12/17 22:18:36;;;;;;;47.60;32.80;;;4.60;82.80;;;;;;10823939;33;20050;-70
2021/12/17 22:24:38;;;;;;;40.35;32.60;;;4.20;82.90;;;;;;10823799;33;20384;-70
2021/12/17 22:30:41;;;;;;;35.15;27.37;;;4.20;83.00;;;;;;10823870;33;20017;-70
2021/12/17 22:36:47;;;;;;;60.65;46.83;;;4.40;82.70;;;;;;10823776;33;20012;-70
2021/12/17 22:42:49;;;;;;;39.35;32.25;;;4.20;82.80;;;;;;10826198;32;20012;-70
2021/12/17 22:48:52;;;;;;;53.78;38.75;;;4.20;82.60;;;;;;10829789;32;20141;-70
2021/12/17 22:54:56;;;;;;;44.88;36.10;;;4.30;82.70;;;;;;10829613;32;20028;-70
2021/12/17 23:01:13;;;;;;;47.40;38.70;;;4.40;82.70;;;;;;10816268;33;20043;-70
2021/12/17 23:07:53;;;;;;;44.63;32.40;;;4.50;82.50;;;;;;10829395;33;20046;-70
2021/12/17 23:13:55;;;;;;;57.85;42.72;;;4.50;82.50;;;;;;10828985;33;20042;-70
2021/12/17 23:19:58;;;;;;;45.58;37.97;;;4.40;82.30;;;;;;10824821;33;20392;-70
2021/12/17 23:26:01;;;;;;;43.05;33.35;;;4.40;82.20;;;;;;10815661;33;20400;-71
2021/12/17 23:32:04;;;;;;;40.05;34.65;;;4.40;82.40;;;;;;10828679;33;20062;-71
2021/12/17 23:38:06;;;;;;;41.70;29.63;;;4.10;82.50;;;;;;10824196;33;20020;-70
2021/12/17 23:44:09;;;;;;;37.58;30.88;;;3.90;82.60;;;;;;10815081;33;20047;-71
2021/12/17 23:50:11;;;;;;;39.80;31.85;;;3.90;83.00;;;;;;10828055;33;20016;-70
2021/12/17 23:56:14;;;;;;;32.70;26.92;;;3.70;82.70;;;;;;10827473;32;20019;-70
